createdAt,value
2018-03-01T00:00:33.664Z,55.71
2018-03-01T00:01:22.717Z,53.13
2018-03-01T00:02:11.748Z,55.36
2018-03-01T00:03:00.780Z,55.53
2018-03-01T00:03:49.873Z,53.12
2018-03-01T00:04:38.949Z,55.32
2018-03-01T00:05:27.997Z,56.77
2018-03-01T00:06:17.037Z,57.59
2018-03-01T00:07:06.069Z,58.02
2018-03-01T00:07:55.118Z,56.46
2018-03-01T00:08:44.152Z,59.79
2018-03-01T00:09:33.185Z,60.51
2018-03-01T00:10:22.377Z,59.20
2018-03-01T00:11:11.424Z,58.59
2018-03-01T00:12:00.524Z,56.17
2018-03-01T00:12:49.558Z,57.16
2018-03-01T00:13:38.598Z,60.34
2018-03-01T00:14:27.629Z,59.47
2018-03-01T00:15:16.681Z,58.85
2018-03-01T00:16:05.779Z,58.77
2018-03-01T00:16:54.873Z,56.86
2018-03-01T00:17:43.900Z,58.71
2018-03-01T00:18:32.941Z,57.51
2018-03-01T00:19:21.995Z,59.32
2018-03-01T00:20:11.026Z,58.68
2018-03-01T00:21:00.071Z,59.53
2018-03-01T00:21:49.156Z,57.63
2018-03-01T00:22:38.211Z,57.34
2018-03-01T00:23:27.254Z,59.77
2018-03-01T00:24:16.293Z,58.23
2018-03-01T00:25:05.338Z,60.38
2018-03-01T00:25:54.372Z,60.50
2018-03-01T00:26:43.580Z,58.94
2018-03-01T00:27:32.626Z,59.65
2018-03-01T00:28:21.669Z,60.89
2018-03-01T00:29:10.733Z,61.34
2018-03-01T00:29:59.769Z,60.19
2018-03-01T00:30:48.839Z,59.19
2018-03-01T00:31:37.978Z,60.81
2018-03-01T00:32:27.019Z,59.31
2018-03-01T00:33:16.117Z,60.05
2018-03-01T00:34:05.179Z,61.90
2018-03-01T00:34:54.209Z,61.63
2018-03-01T00:35:43.257Z,58.51
2018-03-01T00:36:32.295Z,59.43
2018-03-01T00:37:23.467Z,60.30
2018-03-01T00:38:12.516Z,57.28
2018-03-01T00:39:01.545Z,58.96
2018-03-01T00:39:50.590Z,59.63
2018-03-01T00:40:39.611Z,55.27
2018-03-01T00:41:28.644Z,57.50
2018-03-01T00:42:17.687Z,56.42
2018-03-01T00:43:06.760Z,57.43
2018-03-01T00:43:55.829Z,58.13
2018-03-01T00:44:44.855Z,59.86
2018-03-01T00:45:33.918Z,59.49
2018-03-01T00:46:22.946Z,56.50
2018-03-01T00:47:11.973Z,58.11
2018-03-01T00:48:01.013Z,57.71
2018-03-01T00:48:50.211Z,58.09
2018-03-01T00:49:39.240Z,58.25
2018-03-01T00:50:28.272Z,57.81
2018-03-01T00:51:17.300Z,56.06
2018-03-01T00:52:06.359Z,56.38
2018-03-01T00:52:55.389Z,55.32
2018-03-01T00:53:44.439Z,55.55
2018-03-01T00:54:33.498Z,57.07
2018-03-01T00:55:22.532Z,55.47
2018-03-01T00:56:11.559Z,55.77
2018-03-01T00:57:00.589Z,55.60
2018-03-01T00:57:49.621Z,55.79
2018-03-01T00:58:38.648Z,57.14
2018-03-01T00:59:27.671Z,55.84
2018-03-01T01:00:16.852Z,55.18
2018-03-01T01:01:05.886Z,55.37
2018-03-01T01:01:54.913Z,55.99
2018-03-01T01:02:43.942Z,55.21
2018-03-01T01:03:33.039Z,56.55
2018-03-01T01:04:22.074Z,55.98
2018-03-01T01:05:11.104Z,55.44
2018-03-01T01:06:00.132Z,55.92
2018-03-01T01:06:49.157Z,55.24
2018-03-01T01:07:38.179Z,56.51
2018-03-01T01:08:27.212Z,57.36
2018-03-01T01:09:16.384Z,56.95
2018-03-01T01:10:05.424Z,56.97
2018-03-01T01:10:54.468Z,57.24
2018-03-01T01:11:43.499Z,55.61
2018-03-01T01:12:32.570Z,57.67
2018-03-01T01:13:21.600Z,56.00
2018-03-01T01:14:10.630Z,55.27
2018-03-01T01:14:59.706Z,56.11
2018-03-01T01:15:48.751Z,55.00
2018-03-01T01:16:37.792Z,55.98
2018-03-01T01:17:26.823Z,55.10
2018-03-01T01:18:15.870Z,54.85
2018-03-01T01:19:04.899Z,55.03
2018-03-01T01:19:53.937Z,54.01
2018-03-01T01:20:43.083Z,54.28
2018-03-01T01:21:32.116Z,55.33
2018-03-01T01:22:21.150Z,55.73
2018-03-01T01:23:10.178Z,55.18
2018-03-01T01:23:59.270Z,55.54
2018-03-01T01:24:48.306Z,55.22
2018-03-01T01:25:37.336Z,55.01
2018-03-01T01:26:26.364Z,54.57
2018-03-01T01:27:18.474Z,56.04
2018-03-01T01:28:07.497Z,56.24
2018-03-01T01:28:56.524Z,57.18
2018-03-01T01:29:45.602Z,55.38
2018-03-01T01:30:34.634Z,55.88
2018-03-01T01:31:23.657Z,57.22
2018-03-01T01:32:12.694Z,55.39
2018-03-01T01:33:01.719Z,55.85
2018-03-01T01:33:50.758Z,56.54
2018-03-01T01:34:39.800Z,55.98
2018-03-01T01:35:28.878Z,56.49
2018-03-01T01:36:18.407Z,56.90
2018-03-01T01:37:07.453Z,55.65
2018-03-01T01:37:56.484Z,55.47
2018-03-01T01:38:45.518Z,56.04
2018-03-01T01:39:34.553Z,55.94
2018-03-01T01:40:23.580Z,55.58
2018-03-01T01:41:12.614Z,55.37
2018-03-01T01:42:01.800Z,55.45
2018-03-01T01:42:50.833Z,55.19
2018-03-01T01:43:39.877Z,56.27
2018-03-01T01:44:28.905Z,55.31
2018-03-01T01:45:17.996Z,56.10
2018-03-01T01:46:07.033Z,56.41
2018-03-01T01:46:56.185Z,57.23
2018-03-01T01:47:45.223Z,55.88
2018-03-01T01:48:34.388Z,57.35
2018-03-01T01:49:23.421Z,58.28
2018-03-01T01:50:12.472Z,56.28
2018-03-01T01:51:04.362Z,56.97
2018-03-01T01:51:53.417Z,56.01
2018-03-01T01:52:42.509Z,56.12
2018-03-01T01:53:31.539Z,56.23
2018-03-01T01:54:20.564Z,56.73
2018-03-01T01:55:09.594Z,56.24
2018-03-01T01:55:58.675Z,55.17
2018-03-01T01:56:47.704Z,55.16
2018-03-01T01:57:36.742Z,55.53
2018-03-01T01:58:25.779Z,56.36
2018-03-01T01:59:14.809Z,56.35
2018-03-01T02:00:03.989Z,54.95
2018-03-01T02:00:53.186Z,55.27
2018-03-01T02:01:42.224Z,55.49
2018-03-01T02:02:31.256Z,57.17
2018-03-01T02:03:20.288Z,58.49
2018-03-01T02:04:09.322Z,56.01
2018-03-01T02:04:58.443Z,56.79
2018-03-01T02:05:47.504Z,57.35
2018-03-01T02:06:36.535Z,57.32
2018-03-01T02:07:25.567Z,55.42
2018-03-01T02:08:15.003Z,55.00
2018-03-01T02:09:04.080Z,54.90
2018-03-01T02:09:53.106Z,55.57
2018-03-01T02:10:42.206Z,58.04
2018-03-01T02:11:31.301Z,58.34
2018-03-01T02:12:20.336Z,56.09
2018-03-01T02:13:09.372Z,56.49
2018-03-01T02:13:58.402Z,57.69
2018-03-01T02:14:47.446Z,56.34
2018-03-01T02:15:36.481Z,56.75
2018-03-01T02:16:25.512Z,58.65
2018-03-01T02:17:14.713Z,55.16
2018-03-01T02:18:03.739Z,57.46
2018-03-01T02:18:52.787Z,57.34
2018-03-01T02:19:41.818Z,57.73
2018-03-01T02:20:30.876Z,56.70
2018-03-01T02:21:19.914Z,55.89
2018-03-01T02:22:08.969Z,56.59
2018-03-01T02:22:58.092Z,58.28
2018-03-01T02:23:47.128Z,57.30
2018-03-01T02:24:36.164Z,57.74
2018-03-01T02:25:25.213Z,57.81
2018-03-01T02:26:14.254Z,57.05
2018-03-01T02:27:03.328Z,59.18
2018-03-01T02:27:52.362Z,60.13
2018-03-01T02:28:41.429Z,59.10
2018-03-01T02:29:30.478Z,59.47
2018-03-01T02:30:26.276Z,58.70
2018-03-01T02:31:15.360Z,59.63
2018-03-01T02:32:04.403Z,60.09
2018-03-01T02:32:53.468Z,59.88
2018-03-01T02:33:42.685Z,59.96
2018-03-01T02:34:31.721Z,59.86
2018-03-01T02:35:20.769Z,58.17
2018-03-01T02:36:09.910Z,59.23
2018-03-01T02:36:58.961Z,59.89
2018-03-01T02:37:48.001Z,60.90
2018-03-01T02:38:37.045Z,61.64
2018-03-01T02:39:26.088Z,61.79
2018-03-01T02:40:15.133Z,61.52
2018-03-01T02:41:04.170Z,60.26
2018-03-01T02:41:53.260Z,62.33
2018-03-01T02:42:42.305Z,62.57
2018-03-01T02:43:31.436Z,60.03
2018-03-01T02:44:20.553Z,59.62
2018-03-01T02:45:09.588Z,59.80
2018-03-01T02:45:58.629Z,59.49
2018-03-01T02:46:47.669Z,61.90
2018-03-01T02:47:36.708Z,59.44
2018-03-01T02:48:25.757Z,59.11
2018-03-01T02:49:14.958Z,60.74
2018-03-01T02:50:04.015Z,62.09
2018-03-01T02:50:53.055Z,60.11
2018-03-01T02:51:42.171Z,61.13
2018-03-01T02:52:31.226Z,59.84
2018-03-01T02:53:20.274Z,59.18
2018-03-01T02:54:09.321Z,59.19
2018-03-01T02:54:58.416Z,59.53
2018-03-01T02:55:47.464Z,60.60
2018-03-01T02:56:36.507Z,62.78
2018-03-01T02:57:25.540Z,60.45
2018-03-01T02:58:14.577Z,61.89
2018-03-01T02:59:03.608Z,62.69
2018-03-01T02:59:52.646Z,63.24
2018-03-01T03:00:42.036Z,63.21
2018-03-01T03:01:31.127Z,63.08
2018-03-01T03:02:21.086Z,63.41
2018-03-01T03:03:10.126Z,62.24
2018-03-01T03:03:59.160Z,62.35
2018-03-01T03:04:48.198Z,62.95
2018-03-01T03:05:37.233Z,63.39
2018-03-01T03:06:26.335Z,62.81
2018-03-01T03:07:15.368Z,63.21
2018-03-01T03:08:04.430Z,63.87
2018-03-01T03:08:53.473Z,63.58
2018-03-01T03:09:42.520Z,63.19
2018-03-01T03:10:31.576Z,64.36
2018-03-01T03:11:20.607Z,64.57
2018-03-01T03:12:09.680Z,64.25
2018-03-01T03:12:58.721Z,63.70
2018-03-01T03:13:47.756Z,63.80
2018-03-01T03:14:36.804Z,63.15
2018-03-01T03:15:25.846Z,63.42
2018-03-01T03:16:14.883Z,63.92
2018-03-01T03:17:03.964Z,62.73
2018-03-01T03:17:53.110Z,63.01
2018-03-01T03:18:42.149Z,62.64
2018-03-01T03:19:31.178Z,63.18
2018-03-01T03:20:20.220Z,63.94
2018-03-01T03:21:09.267Z,63.74
2018-03-01T03:21:58.503Z,63.47
2018-03-01T03:22:47.570Z,62.75
2018-03-01T03:23:36.609Z,63.52
2018-03-01T03:24:25.640Z,64.00
2018-03-01T03:25:14.693Z,63.68
2018-03-01T03:26:03.763Z,63.73
2018-03-01T03:26:52.799Z,63.42
2018-03-01T03:27:41.871Z,63.93
2018-03-01T03:28:30.926Z,64.42
2018-03-01T03:29:22.507Z,64.46
2018-03-01T03:30:11.548Z,65.22
2018-03-01T03:31:00.591Z,66.44
2018-03-01T03:31:49.628Z,66.31
2018-03-01T03:32:38.663Z,66.65
2018-03-01T03:33:27.733Z,66.81
2018-03-01T03:34:16.774Z,66.80
2018-03-01T03:35:05.821Z,66.30
2018-03-01T03:35:54.869Z,66.98
2018-03-01T03:36:43.921Z,67.72
2018-03-01T03:37:32.972Z,68.51
2018-03-01T03:38:22.012Z,68.61
2018-03-01T03:39:11.193Z,66.77
2018-03-01T03:40:00.229Z,66.81
2018-03-01T03:40:49.265Z,67.70
2018-03-01T03:41:38.308Z,68.19
2018-03-01T03:42:27.384Z,68.58
2018-03-01T03:43:16.444Z,70.11
2018-03-01T03:44:05.504Z,70.40
2018-03-01T03:44:54.592Z,70.37
2018-03-01T03:45:43.633Z,70.25
2018-03-01T03:46:32.664Z,70.09
2018-03-01T03:47:21.718Z,69.77
2018-03-01T03:48:10.749Z,69.92
2018-03-01T03:48:59.779Z,70.04
2018-03-01T03:49:48.866Z,70.92
2018-03-01T03:50:37.943Z,69.77
2018-03-01T03:51:27.013Z,70.04
2018-03-01T03:52:16.054Z,70.31
2018-03-01T03:53:05.105Z,70.76
2018-03-01T03:53:54.147Z,69.35
2018-03-01T03:54:43.185Z,68.07
2018-03-01T03:55:32.228Z,67.12
2018-03-01T03:56:21.356Z,67.66
2018-03-01T03:57:10.389Z,67.61
2018-03-01T03:57:59.434Z,66.42
2018-03-01T03:58:48.478Z,66.56
2018-03-01T03:59:37.521Z,67.07
2018-03-01T04:00:26.552Z,66.84
2018-03-01T04:01:15.595Z,67.03
2018-03-01T04:02:05.948Z,66.94
2018-03-01T04:02:55.041Z,67.16
2018-03-01T04:03:44.071Z,67.93
2018-03-01T04:04:33.108Z,67.98
2018-03-01T04:05:22.143Z,68.37
2018-03-01T04:06:11.194Z,68.51
2018-03-01T04:07:00.245Z,67.67
2018-03-01T04:07:49.388Z,67.25
2018-03-01T04:08:38.418Z,67.57
2018-03-01T04:09:27.500Z,67.54
2018-03-01T04:10:16.535Z,67.74
2018-03-01T04:11:05.570Z,67.10
2018-03-01T04:11:54.600Z,66.76
2018-03-01T04:12:43.695Z,67.52
2018-03-01T04:13:32.741Z,67.30
2018-03-01T04:14:21.773Z,68.30
2018-03-01T04:15:10.824Z,66.98
2018-03-01T04:15:59.956Z,66.57
2018-03-01T04:16:48.991Z,65.33
2018-03-01T04:17:38.036Z,66.24
2018-03-01T04:18:27.082Z,66.43
2018-03-01T04:19:16.389Z,66.28
2018-03-01T04:20:05.434Z,67.38
2018-03-01T04:20:54.481Z,67.77
2018-03-01T04:21:43.577Z,67.73
2018-03-01T04:22:32.608Z,64.97
2018-03-01T04:23:21.654Z,65.30
2018-03-01T04:24:10.692Z,66.35
2018-03-01T04:24:59.725Z,66.94
2018-03-01T04:25:48.768Z,67.08
2018-03-01T04:26:37.804Z,67.07
2018-03-01T04:27:27.018Z,67.69
2018-03-01T04:28:16.061Z,68.00
2018-03-01T04:29:05.121Z,68.33
2018-03-01T04:29:54.168Z,68.46
2018-03-01T04:30:43.208Z,69.96
2018-03-01T04:31:32.396Z,69.15
2018-03-01T04:32:21.489Z,69.89
2018-03-01T04:33:10.533Z,69.91
2018-03-01T04:33:59.572Z,70.50
2018-03-01T04:34:48.618Z,73.48
2018-03-01T04:35:37.661Z,72.15
2018-03-01T04:36:26.798Z,70.88
2018-03-01T04:37:15.840Z,70.30
2018-03-01T04:38:04.892Z,70.48
2018-03-01T04:38:53.927Z,71.21
2018-03-01T04:39:42.963Z,71.17
2018-03-01T04:40:32.008Z,70.41
2018-03-01T04:41:21.034Z,70.33
2018-03-01T04:42:10.180Z,70.95
2018-03-01T04:42:59.225Z,71.04
2018-03-01T04:43:48.268Z,70.98
2018-03-01T04:44:37.308Z,70.79
2018-03-01T04:45:26.404Z,71.29
2018-03-01T04:46:15.472Z,71.11
2018-03-01T04:47:04.512Z,71.18
2018-03-01T04:47:53.552Z,71.65
2018-03-01T04:48:42.606Z,71.75
2018-03-01T04:49:31.679Z,71.55
2018-03-01T04:50:20.726Z,72.25
2018-03-01T04:51:09.776Z,72.00
2018-03-01T04:51:58.821Z,71.85
2018-03-01T04:52:47.874Z,71.94
2018-03-01T04:53:36.913Z,71.80
2018-03-01T04:54:25.985Z,71.74
2018-03-01T04:55:15.133Z,71.30
2018-03-01T04:56:04.175Z,71.88
2018-03-01T04:56:53.227Z,70.34
2018-03-01T04:57:42.278Z,68.97
2018-03-01T04:58:31.320Z,69.35
2018-03-01T04:59:20.381Z,69.69
2018-03-01T05:00:09.421Z,69.49
2018-03-01T05:00:58.639Z,69.43
2018-03-01T05:01:47.677Z,69.07
2018-03-01T05:02:36.731Z,67.85
2018-03-01T05:03:25.776Z,68.00
2018-03-01T05:04:14.844Z,67.75
2018-03-01T05:05:03.887Z,68.04
2018-03-01T05:05:52.984Z,66.99
2018-03-01T05:06:42.013Z,66.74
2018-03-01T05:07:31.066Z,66.89
2018-03-01T05:08:20.099Z,68.48
2018-03-01T05:09:09.164Z,68.80
2018-03-01T05:10:00.660Z,69.58
2018-03-01T05:10:49.861Z,70.59
2018-03-01T05:11:38.900Z,70.99
2018-03-01T05:12:27.940Z,71.54
2018-03-01T05:13:16.979Z,71.84
2018-03-01T05:14:06.019Z,71.65
2018-03-01T05:14:55.057Z,72.51
2018-03-01T05:15:44.105Z,72.45
2018-03-01T05:16:33.249Z,73.21
2018-03-01T05:17:22.286Z,73.00
2018-03-01T05:18:11.333Z,71.18
2018-03-01T05:19:00.380Z,71.28
2018-03-01T05:19:49.423Z,71.69
2018-03-01T05:20:38.473Z,71.67
2018-03-01T05:21:27.554Z,71.21
2018-03-01T05:22:16.598Z,70.75
2018-03-01T05:23:05.651Z,70.81
2018-03-01T05:23:54.698Z,71.05
2018-03-01T05:24:43.744Z,71.06
2018-03-01T05:25:32.847Z,71.35
2018-03-01T05:26:21.895Z,71.73
2018-03-01T05:27:11.013Z,73.30
2018-03-01T05:28:00.194Z,71.46
2018-03-01T05:28:49.465Z,71.52
2018-03-01T05:29:39.402Z,70.35
2018-03-01T05:30:28.825Z,70.09
2018-03-01T05:31:17.890Z,69.82
2018-03-01T05:32:07.932Z,69.22
2018-03-01T05:32:57.480Z,68.80
2018-03-01T05:33:46.528Z,68.28
2018-03-01T05:34:35.614Z,66.84
2018-03-01T05:35:24.656Z,65.77
2018-03-01T05:36:13.842Z,67.08
2018-03-01T05:37:03.275Z,68.05
2018-03-01T05:37:52.489Z,67.05
2018-03-01T05:38:41.578Z,66.98
2018-03-01T05:39:30.625Z,65.52
2018-03-01T05:40:19.687Z,64.86
2018-03-01T05:41:08.781Z,64.81
2018-03-01T05:41:57.940Z,64.22
2018-03-01T05:42:47.018Z,63.99
2018-03-01T05:43:36.086Z,63.79
2018-03-01T05:44:25.178Z,64.19
2018-03-01T05:45:14.251Z,64.38
2018-03-01T05:46:03.305Z,64.75
2018-03-01T05:46:52.368Z,64.60
2018-03-01T05:47:41.544Z,64.80
2018-03-01T05:48:30.600Z,65.04
2018-03-01T05:49:19.654Z,65.64
2018-03-01T05:50:08.697Z,63.74
2018-03-01T05:50:57.769Z,64.37
2018-03-01T05:51:48.496Z,64.05
2018-03-01T05:52:38.028Z,63.60
2018-03-01T05:53:30.285Z,63.44
2018-03-01T05:54:19.345Z,64.51
2018-03-01T05:55:08.406Z,68.60
2018-03-01T05:55:57.494Z,65.26
2018-03-01T05:56:46.553Z,63.60
2018-03-01T05:57:35.617Z,62.27
2018-03-01T05:58:24.690Z,62.33
2018-03-01T05:59:13.790Z,62.27
2018-03-01T06:00:02.872Z,61.30
2018-03-01T06:00:51.939Z,61.55
2018-03-01T06:01:41.016Z,61.93
2018-03-01T06:02:30.067Z,62.83
2018-03-01T06:03:19.122Z,62.87
2018-03-01T06:04:08.207Z,64.12
2018-03-01T06:04:57.320Z,64.81
2018-03-01T06:05:46.368Z,64.00
2018-03-01T06:06:35.429Z,63.65
2018-03-01T06:07:24.522Z,63.34
2018-03-01T06:08:13.627Z,63.32
2018-03-01T06:09:02.668Z,63.83
2018-03-01T06:09:51.836Z,62.65
2018-03-01T06:10:40.872Z,62.34
2018-03-01T06:11:29.958Z,61.70
2018-03-01T06:12:19.262Z,60.71
2018-03-01T06:13:16.444Z,60.02
2018-03-01T06:14:05.506Z,60.90
2018-03-01T06:14:54.859Z,62.35
2018-03-01T06:15:44.014Z,61.99
2018-03-01T06:16:33.070Z,62.20
2018-03-01T06:17:22.253Z,61.41
2018-03-01T06:18:11.344Z,61.17
2018-03-01T06:19:00.459Z,60.97
2018-03-01T06:19:49.491Z,61.03
2018-03-01T06:20:38.738Z,60.02
2018-03-01T06:21:27.826Z,60.07
2018-03-01T06:22:16.878Z,58.68
2018-03-01T06:23:05.947Z,58.76
2018-03-01T06:23:55.013Z,59.73
2018-03-01T06:24:44.072Z,61.80
2018-03-01T06:25:33.138Z,63.44
2018-03-01T06:26:22.287Z,64.61
2018-03-01T06:27:11.357Z,65.20
2018-03-01T06:28:00.414Z,65.11
2018-03-01T06:28:49.531Z,65.03
2018-03-01T06:29:38.599Z,65.35
2018-03-01T06:30:27.775Z,66.27
2018-03-01T06:31:16.841Z,66.88
2018-03-01T06:32:05.945Z,66.99
2018-03-01T06:32:55.013Z,67.97
2018-03-01T06:33:44.074Z,68.36
2018-03-01T06:34:33.172Z,67.99
2018-03-01T06:35:22.217Z,67.75
2018-03-01T06:36:11.275Z,67.11
2018-03-01T06:37:00.332Z,66.53
2018-03-01T06:37:49.409Z,65.94
2018-03-01T06:38:38.545Z,66.25
2018-03-01T06:39:27.602Z,66.02
2018-03-01T06:40:16.657Z,65.92
2018-03-01T06:41:05.704Z,66.07
2018-03-01T06:41:54.758Z,65.95
2018-03-01T06:42:43.805Z,66.20
2018-03-01T06:43:32.860Z,64.82
2018-03-01T06:44:21.976Z,64.01
2018-03-01T06:45:11.332Z,64.24
2018-03-01T06:46:00.385Z,64.17
2018-03-01T06:46:49.469Z,63.85
2018-03-01T06:47:38.516Z,63.70
2018-03-01T06:48:27.580Z,63.33
2018-03-01T06:49:16.652Z,63.00
2018-03-01T06:50:05.763Z,63.29
2018-03-01T06:50:54.824Z,63.53
2018-03-01T06:51:43.880Z,64.20
2018-03-01T06:52:32.928Z,64.37
2018-03-01T06:53:21.994Z,64.57
2018-03-01T06:54:11.099Z,64.66
2018-03-01T06:55:00.152Z,64.97
2018-03-01T06:55:49.328Z,64.74
2018-03-01T06:56:38.383Z,65.27
2018-03-01T06:57:27.476Z,65.20
2018-03-01T06:58:16.534Z,64.71
2018-03-01T06:59:05.630Z,63.88
2018-03-01T06:59:54.666Z,63.33
2018-03-01T07:00:43.756Z,63.77
2018-03-01T07:01:32.817Z,64.38
2018-03-01T07:02:21.860Z,64.63
2018-03-01T07:03:11.058Z,64.12
2018-03-01T07:04:00.112Z,64.44
2018-03-01T07:04:49.160Z,64.14
2018-03-01T07:05:38.218Z,63.17
2018-03-01T07:06:27.275Z,62.02
2018-03-01T07:07:16.338Z,62.00
2018-03-01T07:08:05.384Z,61.70
2018-03-01T07:08:54.489Z,62.06
2018-03-01T07:09:43.584Z,62.38
2018-03-01T07:10:32.857Z,62.87
2018-03-01T07:11:21.939Z,63.13
2018-03-01T07:12:11.017Z,62.64
2018-03-01T07:13:00.086Z,62.24
2018-03-01T07:13:49.296Z,61.93
2018-03-01T07:14:38.347Z,62.15
2018-03-01T07:15:27.405Z,61.80
2018-03-01T07:16:16.456Z,62.09
2018-03-01T07:17:05.504Z,61.48
2018-03-01T07:17:54.660Z,60.70
2018-03-01T07:18:43.699Z,60.62
2018-03-01T07:19:32.840Z,61.29
2018-03-01T07:20:21.911Z,61.17
2018-03-01T07:21:13.899Z,61.04
2018-03-01T07:22:02.949Z,59.09
2018-03-01T07:22:51.986Z,59.00
2018-03-01T07:23:41.133Z,58.58
2018-03-01T07:24:30.171Z,58.71
2018-03-01T07:25:19.219Z,59.21
2018-03-01T07:26:08.256Z,59.16
2018-03-01T07:26:57.290Z,59.40
2018-03-01T07:27:47.080Z,59.04
2018-03-01T07:28:36.122Z,58.71
2018-03-01T07:29:25.186Z,58.39
2018-03-01T07:30:14.267Z,58.04
2018-03-01T07:31:03.327Z,57.20
2018-03-01T07:31:52.358Z,56.62
2018-03-01T07:32:41.401Z,58.01
2018-03-01T07:33:30.446Z,56.97
2018-03-01T07:34:19.501Z,57.42
2018-03-01T07:35:08.571Z,57.78
2018-03-01T07:35:57.622Z,56.92
2018-03-01T07:36:46.651Z,56.12
2018-03-01T07:37:35.705Z,56.72
2018-03-01T07:38:24.761Z,56.92
2018-03-01T07:39:13.809Z,56.96
2018-03-01T07:40:02.840Z,56.12
2018-03-01T07:40:54.997Z,57.36
2018-03-01T07:41:44.040Z,57.53
2018-03-01T07:42:33.072Z,55.94
2018-03-01T07:43:22.106Z,56.74
2018-03-01T07:44:11.143Z,58.02
2018-03-01T07:45:00.179Z,57.73
2018-03-01T07:45:49.204Z,57.93
2018-03-01T07:46:38.292Z,57.19
2018-03-01T07:47:27.334Z,58.04
2018-03-01T07:48:16.374Z,56.86
2018-03-01T07:49:05.407Z,56.87
2018-03-01T07:49:54.439Z,56.17
2018-03-01T07:50:43.527Z,56.26
2018-03-01T07:51:32.573Z,55.66
2018-03-01T07:52:21.624Z,55.54
2018-03-01T07:53:10.684Z,54.36
2018-03-01T07:53:59.734Z,54.71
2018-03-01T07:54:48.796Z,55.32
2018-03-01T07:55:37.836Z,54.39
2018-03-01T07:56:26.979Z,54.32
2018-03-01T07:57:16.133Z,54.69
2018-03-01T07:58:05.184Z,53.34
2018-03-01T07:58:54.228Z,52.67
2018-03-01T07:59:43.405Z,53.28
2018-03-01T08:00:32.446Z,54.23
2018-03-01T08:01:22.621Z,54.47
2018-03-01T08:02:11.684Z,55.28
2018-03-01T08:03:00.724Z,54.70
2018-03-01T08:03:49.761Z,55.05
2018-03-01T08:04:38.795Z,55.14
2018-03-01T08:05:27.875Z,55.54
2018-03-01T08:06:17.034Z,55.81
2018-03-01T08:07:06.093Z,54.62
2018-03-01T08:07:55.148Z,56.27
2018-03-01T08:08:44.185Z,54.72
2018-03-01T08:09:33.241Z,54.34
2018-03-01T08:10:22.279Z,54.63
2018-03-01T08:11:11.383Z,54.28
2018-03-01T08:12:00.466Z,55.59
2018-03-01T08:12:49.504Z,55.41
2018-03-01T08:13:38.536Z,53.65
2018-03-01T08:14:27.623Z,53.77
2018-03-01T08:15:16.663Z,54.64
2018-03-01T08:16:05.715Z,55.33
2018-03-01T08:16:54.764Z,55.65
2018-03-01T08:17:43.914Z,54.31
2018-03-01T08:18:33.116Z,55.82
2018-03-01T08:19:22.152Z,56.25
2018-03-01T08:20:11.199Z,55.62
2018-03-01T08:21:00.235Z,55.61
2018-03-01T08:21:49.272Z,55.49
2018-03-01T08:22:38.300Z,54.19
2018-03-01T08:23:27.402Z,55.39
2018-03-01T08:24:16.449Z,56.93
2018-03-01T08:25:05.498Z,56.85
2018-03-01T08:25:55.324Z,56.43
2018-03-01T08:26:44.378Z,55.54
2018-03-01T08:27:33.508Z,55.52
2018-03-01T08:28:22.549Z,55.62
2018-03-01T08:29:11.617Z,55.19
2018-03-01T08:30:00.672Z,54.48
2018-03-01T08:30:49.741Z,54.14
2018-03-01T08:31:38.895Z,53.26
2018-03-01T08:32:27.976Z,53.95
2018-03-01T08:33:17.079Z,54.37
2018-03-01T08:34:06.134Z,54.24
2018-03-01T08:34:55.178Z,54.27
2018-03-01T08:35:44.220Z,53.45
2018-03-01T08:36:33.268Z,54.00
2018-03-01T08:37:22.365Z,52.05
2018-03-01T08:38:11.405Z,52.09
2018-03-01T08:39:00.453Z,52.35
2018-03-01T08:39:49.518Z,52.26
2018-03-01T08:40:38.568Z,51.71
2018-03-01T08:41:27.630Z,50.95
2018-03-01T08:42:16.686Z,51.50
2018-03-01T08:43:05.777Z,52.69
2018-03-01T08:43:54.829Z,51.76
2018-03-01T08:44:43.882Z,51.32
2018-03-01T08:45:32.938Z,50.94
2018-03-01T08:49:20.252Z,51.54
2018-03-01T08:50:11.021Z,52.44
2018-03-01T08:51:00.059Z,51.53
2018-03-01T08:51:49.102Z,51.62
2018-03-01T08:52:38.154Z,50.23
2018-03-01T08:53:27.212Z,50.96
2018-03-01T08:54:16.304Z,49.58
2018-03-01T08:57:51.715Z,50.74
2018-03-01T08:58:40.764Z,49.60
2018-03-01T08:59:29.832Z,48.36
2018-03-01T09:00:18.880Z,49.06
2018-03-01T09:01:07.935Z,48.92
2018-03-01T09:01:56.981Z,47.91
2018-03-01T09:02:46.024Z,46.89
2018-03-01T09:03:35.101Z,47.06
2018-03-01T09:04:24.135Z,45.79
2018-03-01T09:05:13.191Z,45.76
2018-03-01T09:06:02.234Z,45.18
2018-03-01T09:06:51.283Z,46.13
2018-03-01T09:07:40.322Z,46.12
2018-03-01T09:08:29.375Z,46.02
2018-03-01T09:09:18.581Z,47.07
2018-03-01T09:10:07.653Z,46.83
2018-03-01T09:10:56.706Z,45.71
2018-03-01T09:11:45.810Z,47.50
2018-03-01T09:12:34.860Z,47.38
2018-03-01T09:13:23.905Z,47.79
2018-03-01T09:14:12.972Z,47.13
2018-03-01T09:15:02.038Z,46.08
2018-03-01T09:15:51.085Z,46.88
2018-03-01T09:16:40.193Z,44.72
2018-03-01T09:17:29.253Z,46.36
2018-03-01T09:18:18.305Z,46.31
2018-03-01T09:19:07.358Z,45.03
2018-03-01T09:19:56.421Z,45.33
2018-03-01T09:20:45.468Z,43.39
2018-03-01T09:21:34.611Z,43.36
2018-03-01T09:22:23.646Z,43.74
2018-03-01T09:23:12.692Z,43.55
2018-03-01T09:24:01.751Z,43.17
2018-03-01T09:24:50.800Z,43.40
2018-03-01T09:25:39.847Z,44.52
2018-03-01T09:26:28.896Z,45.68
2018-03-01T09:27:17.997Z,44.64
2018-03-01T09:28:07.041Z,45.28
2018-03-01T09:28:56.112Z,43.28
2018-03-01T09:29:45.173Z,42.58
2018-03-01T09:30:34.264Z,42.84
2018-03-01T09:31:23.279Z,43.08
2018-03-01T09:32:12.317Z,43.00
2018-03-01T09:33:01.431Z,43.85
2018-03-01T09:33:50.474Z,42.66
2018-03-01T09:34:39.518Z,44.39
2018-03-01T09:35:28.604Z,44.39
2018-03-01T09:36:17.697Z,43.95
2018-03-01T09:37:06.750Z,44.24
2018-03-01T09:37:55.812Z,44.78
2018-03-01T09:38:45.760Z,46.45
2018-03-01T09:39:34.828Z,46.85
2018-03-01T09:40:23.891Z,46.41
2018-03-01T09:41:12.952Z,45.36
2018-03-01T09:42:02.014Z,44.98
2018-03-01T09:42:51.103Z,46.03
2018-03-01T09:43:40.162Z,44.75
2018-03-01T09:44:29.267Z,43.42
2018-03-01T09:45:18.318Z,43.81
2018-03-01T09:46:07.367Z,42.44
2018-03-01T09:46:56.462Z,43.30
2018-03-01T09:47:45.543Z,44.92
2018-03-01T09:48:34.593Z,44.67
2018-03-01T09:49:23.647Z,43.49
2018-03-01T09:50:12.780Z,42.69
2018-03-01T09:51:01.836Z,44.04
2018-03-01T09:51:50.956Z,41.58
2018-03-01T09:52:39.974Z,42.29
2018-03-01T09:53:29.024Z,41.73
2018-03-01T09:54:18.063Z,42.77
2018-03-01T09:55:07.122Z,43.72
2018-03-01T09:55:56.324Z,43.25
2018-03-01T09:56:45.380Z,42.29
2018-03-01T09:57:34.415Z,43.39
2018-03-01T09:58:23.553Z,43.65
2018-03-01T09:59:12.599Z,42.93
2018-03-01T10:00:01.670Z,42.38
2018-03-01T10:00:50.727Z,43.42
2018-03-01T10:01:39.790Z,43.80
2018-03-01T10:02:28.831Z,42.99
2018-03-01T10:03:17.890Z,42.65
2018-03-01T10:04:07.006Z,43.57
2018-03-01T10:04:56.066Z,43.59
2018-03-01T10:05:45.120Z,40.59
2018-03-01T10:06:34.170Z,43.91
2018-03-01T10:07:23.229Z,44.38
2018-03-01T10:08:12.276Z,44.92
2018-03-01T10:09:01.378Z,43.52
2018-03-01T10:09:50.447Z,41.69
2018-03-01T10:10:39.494Z,42.16
2018-03-01T10:11:28.547Z,42.91
2018-03-01T10:12:17.582Z,40.98
2018-03-01T10:13:06.788Z,42.33
2018-03-01T10:13:55.837Z,42.07
2018-03-01T10:14:44.875Z,42.61
2018-03-01T10:15:33.939Z,44.42
2018-03-01T10:16:23.006Z,44.22
2018-03-01T10:17:12.077Z,44.64
2018-03-01T10:18:01.229Z,43.97
2018-03-01T10:18:50.283Z,45.41
2018-03-01T10:19:39.343Z,43.45
2018-03-01T10:20:28.395Z,44.36
2018-03-01T10:21:17.577Z,44.38
2018-03-01T10:22:06.698Z,41.61
2018-03-01T10:22:55.749Z,41.78
2018-03-01T10:23:44.802Z,43.12
2018-03-01T10:24:33.864Z,44.74
2018-03-01T10:25:22.913Z,44.29
2018-03-01T10:26:12.035Z,44.75
2018-03-01T10:27:01.106Z,44.24
2018-03-01T10:27:50.152Z,45.04
2018-03-01T10:28:39.334Z,44.72
2018-03-01T10:29:28.376Z,45.46
2018-03-01T10:30:17.430Z,43.65
2018-03-01T10:31:06.483Z,43.77
2018-03-01T10:31:55.544Z,42.90
2018-03-01T10:32:44.581Z,42.42
2018-03-01T10:33:39.242Z,43.46
2018-03-01T10:34:28.287Z,41.63
2018-03-01T10:35:17.335Z,42.85
2018-03-01T10:36:06.379Z,42.10
2018-03-01T10:36:55.428Z,41.64
2018-03-01T10:37:44.488Z,43.47
2018-03-01T10:38:33.539Z,41.23